Orbital elements of COSMOS 970 DEB
| Launched | 20 December 1977 |
| Flight ended | – |
| Launch site | Tyuratam Missile and Space Center, Kazakhstan (Also known as Baikonur Cosmodrome) |
| Owner | Commonwealth of Independent States (former USSR) |
| NORAD ID | 64986 |
| Date fetched |
Epoch osculation |
Inc. [°] |
Ecc. | RA asc node [hr] |
Arg Peri. [°] |
Mean anom [°] |
Mean motion [rev/day] |
Abs. mag |
| Date fetched |
Epoch osculation |
Inc. [°] |
Ecc. | RA asc node [hr] |
Arg Peri. [°] |
Mean anom [°] |
Mean motion [rev/day] |
Abs. mag |
| 2026 May 03 17:57 | 2026 Apr 30 12:40:50 | 65.7775 | 0.00913 | 14.6822 | 69.3416 | 306.8933 | 13.69809 | – |
| 2026 May 02 17:57 | 2026 Apr 30 12:40:50 | 65.7775 | 0.00913 | 14.6822 | 69.3416 | 306.8933 | 13.69809 | – |
| 2026 May 01 17:56 | 2026 Apr 30 12:40:50 | 65.7775 | 0.00913 | 14.6822 | 69.3416 | 306.8933 | 13.69809 | – |
| 2026 Apr 30 17:56 | 2026 Apr 30 12:40:50 | 65.7775 | 0.00913 | 14.6822 | 69.3416 | 306.8933 | 13.69809 | – |
| 2026 Apr 29 17:57 | 2026 Apr 23 14:12:40 | 65.7770 | 0.00913 | 15.8171 | 73.0250 | 306.8933 | 13.69809 | – |
| 2026 Apr 28 17:56 | 2026 Apr 23 14:12:40 | 65.7770 | 0.00913 | 15.8171 | 73.0250 | 306.8933 | 13.69809 | – |
| 2026 Apr 27 17:58 | 2026 Apr 23 14:12:40 | 65.7770 | 0.00913 | 15.8171 | 73.0250 | 306.8933 | 13.69809 | – |
| 2026 Apr 26 17:58 | 2026 Apr 23 14:12:40 | 65.7770 | 0.00913 | 15.8171 | 73.0250 | 306.8933 | 13.69809 | – |
| 2026 Apr 25 17:58 | 2026 Apr 23 14:12:40 | 65.7770 | 0.00913 | 15.8171 | 73.0250 | 306.8933 | 13.69809 | – |
| 2026 Apr 24 17:59 | 2026 Apr 23 14:12:40 | 65.7770 | 0.00913 | 15.8171 | 73.0250 | 306.8933 | 13.69809 | – |
| 2026 Apr 23 17:57 | 2026 Apr 15 03:44:17 | 65.7765 | 0.00915 | 17.1975 | 77.4228 | 306.8933 | 13.69809 | – |
| 2026 Apr 22 17:57 | 2026 Apr 15 03:44:17 | 65.7765 | 0.00915 | 17.1975 | 77.4228 | 306.8933 | 13.69809 | – |
| 2026 Apr 21 17:57 | 2026 Apr 15 03:44:17 | 65.7765 | 0.00915 | 17.1975 | 77.4228 | 306.8933 | 13.69809 | – |
| 2026 Apr 20 17:57 | 2026 Apr 15 03:44:17 | 65.7765 | 0.00915 | 17.1975 | 77.4228 | 306.8933 | 13.69809 | – |
| 2026 Apr 19 17:58 | 2026 Apr 15 03:44:17 | 65.7765 | 0.00915 | 17.1975 | 77.4228 | 306.8933 | 13.69809 | – |
| 2026 Apr 18 17:56 | 2026 Apr 12 17:08:37 | 65.7754 | 0.00914 | 17.5970 | 78.6761 | 306.8933 | 13.69809 | – |
| 2026 Apr 16 17:57 | 2026 Apr 12 17:08:37 | 65.7754 | 0.00914 | 17.5970 | 78.6761 | 306.8933 | 13.69809 | – |
| 2026 Apr 14 17:57 | 2026 Apr 12 17:08:37 | 65.7754 | 0.00914 | 17.5970 | 78.6761 | 306.8933 | 13.69809 | – |
| 2026 Apr 13 17:57 | 2026 Apr 12 17:08:37 | 65.7754 | 0.00914 | 17.5970 | 78.6761 | 306.8933 | 13.69809 | – |
| 2026 Apr 12 17:57 | 2026 Apr 07 17:59:16 | 65.7757 | 0.00914 | 18.4095 | 81.1810 | 306.8933 | 13.69809 | – |
| 2026 Apr 11 17:57 | 2026 Apr 07 17:59:16 | 65.7757 | 0.00914 | 18.4095 | 81.1810 | 306.8933 | 13.69809 | – |
| 2026 Apr 10 17:58 | 2026 Apr 07 17:59:16 | 65.7757 | 0.00914 | 18.4095 | 81.1810 | 306.8933 | 13.69809 | – |
| 2026 Apr 09 18:01 | 2026 Apr 07 17:59:16 | 65.7757 | 0.00914 | 18.4095 | 81.1810 | 306.8933 | 13.69809 | – |
| 2026 Apr 08 17:57 | 2026 Apr 07 17:59:16 | 65.7757 | 0.00914 | 18.4095 | 81.1810 | 306.8933 | 13.69809 | – |
| 2026 Apr 07 17:57 | 2026 Mar 28 21:26:06 | 65.7765 | 0.00913 | 20.0224 | 86.3009 | 306.8933 | 13.69809 | – |
| 2026 Apr 06 17:57 | 2026 Mar 28 21:26:06 | 65.7765 | 0.00913 | 20.0224 | 86.3009 | 306.8933 | 13.69809 | – |